Time;durP1;ratioP1;P1;durP2;ratioP2;P2;SDS_P1;SDS_P2;PMS_P1;PMS_P2;Temp;Humidity;BMP_temperature;BMP_pressure;BME280_temperature;BME280_humidity;BME280_pressure;Samples;Min_cycle;Max_cycle;Signal;HPM_P1;HPM_P2
2022/11/28 00:01:51;;;;;;;;;;;;;;;10.98;71.17;102257.19;5078298;28;19916;-88
2022/11/28 00:04:18;;;;;;;;;;;;;;;11.04;71.42;102257.66;5096723;28;20010;-89
2022/11/28 00:06:45;;;;;;;;;;;;;;;11.02;71.46;102259.25;5079996;28;20015;-89
2022/11/28 00:09:12;;;;;;;;;;;;;;;10.99;71.42;102264.25;5095807;28;19916;-89
2022/11/28 00:11:38;;;;;;;;;;;;;;;11.03;71.38;102257.53;5097829;28;20014;-88
2022/11/28 00:14:05;;;;;;;;;;;;;;;11.06;71.40;102260.41;5078474;28;20348;-90
2022/11/28 00:16:30;;;;;;;;;;;;;;;11.08;71.12;102258.81;5085242;28;19939;-88
2022/11/28 00:18:57;;;;;;;;;;;;;;;11.06;71.13;102250.84;5096133;28;20388;-88
2022/11/28 00:21:22;;;;;;;;;;;;;;;11.07;71.16;102254.34;5087640;27;20010;-88
2022/11/28 00:23:48;;;;;;;;;;;;;;;11.00;71.53;102234.69;5098500;28;19951;-88
2022/11/28 00:26:18;;;;;;;;;;;;;;;11.05;71.26;102242.88;5093550;27;19965;-89
2022/11/28 00:28:44;;;;;;;;;;;;;;;11.02;71.38;102238.31;5097159;28;20006;-87
2022/11/28 00:31:13;;;;;;;;;;;;;;;11.02;71.57;102246.16;5084018;27;19916;-89
2022/11/28 00:33:39;;;;;;;;;;;;;;;11.05;71.55;102245.47;5082769;28;20015;-89
2022/11/28 00:36:05;;;;;;;;;;;;;;;11.04;71.34;102235.84;5080805;28;20006;-89
2022/11/28 00:38:31;;;;;;;;;;;;;;;11.08;71.19;102240.50;5104305;28;19915;-88
2022/11/28 00:40:58;;;;;;;;;;;;;;;11.06;71.14;102236.88;5095521;28;19927;-89
2022/11/28 00:43:24;;;;;;;;;;;;;;;11.03;71.53;102234.00;5073381;28;19915;-88
2022/11/28 00:45:51;;;;;;;;;;;;;;;11.06;71.03;102235.16;5078722;28;20006;-88
2022/11/28 00:48:16;;;;;;;;;;;;;;;11.05;71.16;102229.81;5094215;28;19935;-88
2022/11/28 00:50:42;;;;;;;;;;;;;;;11.04;71.55;102235.84;5078078;28;20397;-88
2022/11/28 00:53:08;;;;;;;;;;;;;;;11.00;71.33;102237.28;5077593;28;19915;-88
2022/11/28 00:55:33;;;;;;;;;;;;;;;11.03;71.65;102236.63;5094134;28;19938;-88
2022/11/28 00:57:59;;;;;;;;;;;;;;;11.06;71.45;102234.25;5092827;28;20461;-88
2022/11/28 01:00:24;;;;;;;;;;;;;;;11.05;71.05;102249.03;5077419;28;20342;-88
2022/11/28 01:02:50;;;;;;;;;;;;;;;11.08;71.29;102240.50;5094763;28;19912;-88
2022/11/28 01:05:16;;;;;;;;;;;;;;;11.10;71.28;102234.59;5097189;27;19919;-88
2022/11/28 01:07:41;;;;;;;;;;;;;;;11.11;71.26;102241.66;5083758;27;19972;-88
2022/11/28 01:10:08;;;;;;;;;;;;;;;11.06;71.70;102243.00;5078671;28;20304;-89
2022/11/28 01:12:35;;;;;;;;;;;;;;;11.08;71.48;102230.06;5094210;28;19923;-88
2022/11/28 01:15:00;;;;;;;;;;;;;;;11.08;71.63;102227.44;5111120;28;19916;-88
2022/11/28 01:17:27;;;;;;;;;;;;;;;11.12;71.46;102229.47;5081337;28;20305;-90
2022/11/28 01:19:52;;;;;;;;;;;;;;;11.09;71.12;102229.25;5097337;27;19942;-89
2022/11/28 01:22:19;;;;;;;;;;;;;;;11.07;71.08;102223.91;5084608;28;20585;-89
2022/11/28 01:24:48;;;;;;;;;;;;;;;11.09;71.16;102214.50;5103444;27;19942;-89
2022/11/28 01:27:14;;;;;;;;;;;;;;;11.16;71.15;102210.63;5100263;27;19915;-89
2022/11/28 01:32:43;;;;;;;;;;;;;;;11.11;71.20;102193.66;5125445;28;19923;-89
2022/11/28 01:35:08;;;;;;;;;;;;;;;11.07;71.27;102210.84;5120637;28;19908;-90
2022/11/28 01:37:34;;;;;;;;;;;;;;;11.09;71.32;102196.19;5101600;28;19931;-89
2022/11/28 01:39:59;;;;;;;;;;;;;;;11.10;71.12;102189.25;5076584;28;20305;-89
2022/11/28 01:42:24;;;;;;;;;;;;;;;11.08;71.13;102207.41;5075711;28;19916;-89
2022/11/28 01:44:53;;;;;;;;;;;;;;;11.07;71.19;102204.69;5088815;28;20014;-89
2022/11/28 01:47:22;;;;;;;;;;;;;;;11.05;71.25;102201.03;5089271;28;20412;-89
2022/11/28 01:49:48;;;;;;;;;;;;;;;11.05;71.54;102190.59;5074705;28;19912;-89
2022/11/28 01:52:14;;;;;;;;;;;;;;;11.07;71.16;102186.38;5090853;28;20449;-89
2022/11/28 01:54:41;;;;;;;;;;;;;;;11.04;71.49;102178.31;5073990;28;19995;-89
2022/11/28 01:57:12;;;;;;;;;;;;;;;11.06;71.45;102176.75;5090036;28;19959;-89
2022/11/28 01:59:40;;;;;;;;;;;;;;;11.09;71.22;102161.25;5067346;28;20457;-89
2022/11/28 02:02:06;;;;;;;;;;;;;;;11.06;71.26;102161.06;5079695;28;20540;-90
2022/11/28 02:04:32;;;;;;;;;;;;;;;11.04;71.34;102162.63;5074448;28;19920;-89
2022/11/28 02:06:57;;;;;;;;;;;;;;;10.99;71.15;102152.75;5073773;28;20404;-90
2022/11/28 02:09:24;;;;;;;;;;;;;;;11.01;71.34;102158.09;5091045;28;19923;-91
2022/11/28 02:11:58;;;;;;;;;;;;;;;11.03;71.30;102151.28;5091165;28;19923;-88
2022/11/28 02:14:40;;;;;;;;;;;;;;;11.05;70.66;102154.91;5075836;28;19916;-87
2022/11/28 02:17:13;;;;;;;;;;;;;;;10.97;71.08;102141.28;5077635;28;20397;-88
2022/11/28 02:20:03;;;;;;;;;;;;;;;10.98;71.58;102139.56;5097434;28;20316;-90
2022/11/28 02:22:38;;;;;;;;;;;;;;;10.99;71.20;102137.06;5069698;28;19916;-89
2022/11/28 02:25:07;;;;;;;;;;;;;;;10.89;71.39;102123.22;5097674;28;20408;-90
2022/11/28 02:27:37;;;;;;;;;;;;;;;10.97;71.59;102122.06;5100018;28;19926;-89
2022/11/28 02:30:08;;;;;;;;;;;;;;;10.96;71.54;102125.47;5075876;28;19916;-89
2022/11/28 02:32:43;;;;;;;;;;;;;;;10.90;71.35;102118.09;5092941;28;20432;-89
2022/11/28 02:35:17;;;;;;;;;;;;;;;10.90;71.38;102114.56;5101241;28;20400;-89
2022/11/28 02:37:55;;;;;;;;;;;;;;;10.82;71.12;102123.56;5101982;28;19974;-88
2022/11/28 02:40:28;;;;;;;;;;;;;;;10.79;71.95;102113.75;5097679;28;20297;-88
2022/11/28 02:43:02;;;;;;;;;;;;;;;10.80;72.15;102113.88;5090046;28;20349;-89
2022/11/28 02:45:29;;;;;;;;;;;;;;;10.80;71.67;102105.13;5092903;28;19915;-90
2022/11/28 02:48:02;;;;;;;;;;;;;;;10.73;71.60;102108.06;5106157;28;20401;-90
2022/11/28 02:50:29;;;;;;;;;;;;;;;10.78;72.00;102109.34;5079992;28;19922;-90
2022/11/28 02:52:59;;;;;;;;;;;;;;;10.82;71.38;102114.00;5099049;28;19973;-89
2022/11/28 02:55:24;;;;;;;;;;;;;;;10.76;72.01;102106.59;5096893;28;20453;-89
2022/11/28 02:57:51;;;;;;;;;;;;;;;10.85;72.20;102114.22;5083216;28;20010;-88
2022/11/28 03:00:36;;;;;;;;;;;;;;;10.90;71.83;102101.47;5092119;28;19964;-88
2022/11/28 03:03:34;;;;;;;;;;;;;;;10.85;71.63;102115.94;5097384;28;19916;-88
2022/11/28 03:06:09;;;;;;;;;;;;;;;10.88;71.24;102109.25;5071214;28;20006;-87
2022/11/28 03:08:36;;;;;;;;;;;;;;;10.89;71.79;102123.22;5083638;28;19920;-89
2022/11/28 03:11:01;;;;;;;;;;;;;;;10.88;71.15;102103.06;5093946;28;19974;-89
2022/11/28 03:13:59;;;;;;;;;;;;;;;10.88;71.66;102110.91;5093211;28;19955;-89
2022/11/28 03:16:29;;;;;;;;;;;;;;;10.91;71.18;102105.94;5060080;28;19923;-88
2022/11/28 03:19:04;;;;;;;;;;;;;;;10.99;71.53;102110.94;5094321;28;19985;-89
2022/11/28 03:21:38;;;;;;;;;;;;;;;10.91;71.47;102112.06;5077075;28;20014;-88
2022/11/28 03:24:05;;;;;;;;;;;;;;;10.94;71.38;102104.47;5078999;28;19916;-88
2022/11/28 03:26:35;;;;;;;;;;;;;;;10.96;71.15;102104.56;5093842;28;19923;-88
2022/11/28 03:29:02;;;;;;;;;;;;;;;10.95;71.50;102100.13;5075855;28;19917;-89
2022/11/28 03:31:35;;;;;;;;;;;;;;;10.94;71.28;102093.06;5095923;28;19916;-89
2022/11/28 03:34:02;;;;;;;;;;;;;;;10.92;71.28;102092.06;5083144;28;19916;-88
2022/11/28 03:36:30;;;;;;;;;;;;;;;10.91;71.45;102088.53;5076955;28;19994;-89
2022/11/28 03:38:59;;;;;;;;;;;;;;;10.90;71.58;102091.97;5083559;28;19923;-90
2022/11/28 03:41:32;;;;;;;;;;;;;;;10.84;71.22;102096.72;5087265;28;19928;-89
2022/11/28 03:44:00;;;;;;;;;;;;;;;10.81;70.84;102093.88;5085525;28;19963;-89
2022/11/28 03:46:29;;;;;;;;;;;;;;;10.80;71.58;102094.69;5082259;28;20441;-88
2022/11/28 03:48:58;;;;;;;;;;;;;;;10.74;71.98;102104.69;5083020;28;19969;-89
2022/11/28 03:51:27;;;;;;;;;;;;;;;10.79;71.81;102101.63;5097154;28;19919;-89
2022/11/28 03:53:58;;;;;;;;;;;;;;;10.75;71.87;102103.88;5078008;28;19972;-89
2022/11/28 03:56:37;;;;;;;;;;;;;;;10.76;71.58;102109.22;5090357;28;19916;-89
2022/11/28 03:59:22;;;;;;;;;;;;;;;10.71;71.32;102107.03;5091876;28;20404;-90
2022/11/28 04:01:51;;;;;;;;;;;;;;;10.78;71.71;102104.13;5077011;28;19920;-90
2022/11/28 04:07:24;;;;;;;;;;;;;;;10.78;71.84;102110.25;5097693;28;20015;-90
2022/11/28 04:09:56;;;;;;;;;;;;;;;10.75;71.54;102114.31;5089272;28;20624;-89
2022/11/28 04:15:30;;;;;;;;;;;;;;;10.82;71.90;102121.84;5106384;28;19922;-91
2022/11/28 04:17:59;;;;;;;;;;;;;;;10.73;71.29;102118.53;5115378;28;19971;-90
2022/11/28 04:20:35;;;;;;;;;;;;;;;10.72;71.32;102108.88;5104392;28;19980;-93
2022/11/28 04:23:11;;;;;;;;;;;;;;;10.73;71.54;102119.47;5098205;28;19965;-91
2022/11/28 04:25:36;;;;;;;;;;;;;;;10.75;71.28;102110.03;5091209;28;20385;-93
2022/11/28 04:28:10;;;;;;;;;;;;;;;10.69;71.75;102112.19;5097740;28;19915;-93
2022/11/28 04:30:37;;;;;;;;;;;;;;;10.70;71.35;102118.31;5079888;28;19919;-92
2022/11/28 04:33:12;;;;;;;;;;;;;;;10.73;71.80;102111.63;5087530;28;19916;-92
2022/11/28 04:35:43;;;;;;;;;;;;;;;10.75;71.79;102115.25;5092498;28;19927;-92
2022/11/28 04:38:08;;;;;;;;;;;;;;;10.81;71.74;102112.16;5075144;28;19916;-93
2022/11/28 04:40:54;;;;;;;;;;;;;;;10.82;71.38;102107.88;5077557;28;19916;-91
2022/11/28 04:43:51;;;;;;;;;;;;;;;10.85;71.36;102111.59;5104295;28;19928;-91
2022/11/28 04:46:21;;;;;;;;;;;;;;;10.89;71.20;102121.50;5105819;28;19959;-91
2022/11/28 04:48:47;;;;;;;;;;;;;;;10.85;71.14;102116.81;5087853;28;19919;-90
2022/11/28 04:51:20;;;;;;;;;;;;;;;10.83;71.60;102125.34;5084378;28;19920;-90
2022/11/28 04:53:51;;;;;;;;;;;;;;;10.87;71.37;102125.69;5104456;28;19916;-91
2022/11/28 04:56:21;;;;;;;;;;;;;;;10.87;71.57;102122.19;5090694;28;20006;-90
2022/11/28 04:58:49;;;;;;;;;;;;;;;10.80;71.35;102134.78;5089165;28;19920;-89
2022/11/28 05:01:18;;;;;;;;;;;;;;;10.83;71.59;102130.59;5082496;28;19927;-91
2022/11/28 05:03:44;;;;;;;;;;;;;;;10.88;71.46;102139.66;5103457;28;20355;-90
2022/11/28 05:06:31;;;;;;;;;;;;;;;10.88;71.21;102132.75;5087215;28;19951;-89
2022/11/28 05:09:04;;;;;;;;;;;;;;;10.87;71.14;102133.53;5092564;28;20030;-92
2022/11/28 05:11:43;;;;;;;;;;;;;;;10.91;71.13;102132.97;5082712;28;19916;-91
2022/11/28 05:14:18;;;;;;;;;;;;;;;10.93;71.10;102134.00;5089423;28;19916;-92
2022/11/28 05:17:05;;;;;;;;;;;;;;;10.87;71.46;102130.03;5073540;28;19923;-92
2022/11/28 05:19:33;;;;;;;;;;;;;;;10.84;71.61;102141.16;5075033;28;19950;-91
2022/11/28 05:22:29;;;;;;;;;;;;;;;10.86;71.15;102130.78;5060448;28;20515;-91
2022/11/28 05:24:57;;;;;;;;;;;;;;;10.85;71.25;102127.28;5076477;28;19916;-89
2022/11/28 05:27:29;;;;;;;;;;;;;;;10.87;71.54;102133.53;5075726;28;19932;-92
2022/11/28 05:29:54;;;;;;;;;;;;;;;10.84;71.34;102121.94;5080507;28;19912;-89
2022/11/28 05:32:22;;;;;;;;;;;;;;;10.82;71.39;102115.72;5090472;28;20440;-90
2022/11/28 05:34:51;;;;;;;;;;;;;;;10.68;71.58;102118.19;5063809;28;19920;-90
2022/11/28 05:37:18;;;;;;;;;;;;;;;10.71;71.61;102125.34;5076966;28;19924;-87
2022/11/28 05:39:43;;;;;;;;;;;;;;;10.74;71.46;102128.19;5094774;28;20378;-88
2022/11/28 05:42:09;;;;;;;;;;;;;;;10.71;71.26;102117.50;5084814;28;19925;-89
2022/11/28 05:44:34;;;;;;;;;;;;;;;10.76;71.90;102113.53;5075214;28;20372;-88
2022/11/28 05:46:59;;;;;;;;;;;;;;;10.78;71.46;102122.41;5087592;28;19912;-86
2022/11/28 05:49:25;;;;;;;;;;;;;;;10.75;71.55;102127.38;5096205;28;20372;-85
2022/11/28 05:51:51;;;;;;;;;;;;;;;10.69;71.49;102126.91;5078939;28;19912;-86
2022/11/28 05:54:16;;;;;;;;;;;;;;;10.72;71.34;102124.56;5089320;28;20381;-87
2022/11/28 05:56:42;;;;;;;;;;;;;;;10.75;71.50;102125.72;5087064;28;19923;-87
2022/11/28 05:59:07;;;;;;;;;;;;;;;10.71;71.67;102127.94;5075039;28;20316;-88
2022/11/28 06:01:34;;;;;;;;;;;;;;;10.76;71.47;102127.50;5092048;28;20397;-88
2022/11/28 06:03:59;;;;;;;;;;;;;;;10.74;71.51;102118.63;5091625;28;19913;-89
2022/11/28 06:06:31;;;;;;;;;;;;;;;10.66;71.34;102117.16;5080730;28;19927;-91
2022/11/28 06:08:56;;;;;;;;;;;;;;;10.66;71.15;102119.75;5075363;28;20313;-89
2022/11/28 06:11:23;;;;;;;;;;;;;;;10.73;71.85;102127.28;5060065;28;19916;-89
2022/11/28 06:13:49;;;;;;;;;;;;;;;10.74;71.93;102120.34;5077242;28;19916;-90
2022/11/28 06:16:19;;;;;;;;;;;;;;;10.67;71.37;102120.66;5088149;28;19912;-89
2022/11/28 06:18:45;;;;;;;;;;;;;;;10.72;71.59;102121.94;5092475;28;19916;-90
2022/11/28 06:21:14;;;;;;;;;;;;;;;10.74;71.60;102122.97;5077506;28;20386;-88
2022/11/28 06:23:41;;;;;;;;;;;;;;;10.74;71.72;102123.88;5081022;28;19995;-90
2022/11/28 06:26:10;;;;;;;;;;;;;;;10.74;71.83;102136.03;5079258;28;19923;-89
2022/11/28 06:28:40;;;;;;;;;;;;;;;10.75;71.79;102133.53;5095238;28;19918;-91
2022/11/28 06:31:17;;;;;;;;;;;;;;;10.78;71.70;102132.84;5072769;28;19919;-91
2022/11/28 06:33:45;;;;;;;;;;;;;;;10.78;71.16;102144.22;5067936;28;19920;-90
2022/11/28 06:36:11;;;;;;;;;;;;;;;10.77;71.79;102144.09;5070976;28;19938;-90
2022/11/28 06:38:37;;;;;;;;;;;;;;;10.77;71.35;102139.78;5076535;28;19919;-90
2022/11/28 06:41:07;;;;;;;;;;;;;;;10.78;71.22;102140.69;5073849;28;19963;-91
2022/11/28 06:43:36;;;;;;;;;;;;;;;10.79;71.42;102140.81;5088236;28;20385;-91
2022/11/28 06:46:04;;;;;;;;;;;;;;;10.83;71.06;102141.94;5074770;28;20396;-94
2022/11/28 06:48:31;;;;;;;;;;;;;;;10.83;71.46;102135.81;5073439;28;19953;-91
2022/11/28 06:51:23;;;;;;;;;;;;;;;10.82;71.20;102142.75;5076020;28;19950;-90
2022/11/28 06:53:56;;;;;;;;;;;;;;;10.84;71.12;102148.06;5093802;28;19912;-90
2022/11/28 06:56:49;;;;;;;;;;;;;;;10.80;71.47;102141.72;5111129;28;19951;-91
2022/11/28 06:59:15;;;;;;;;;;;;;;;10.81;71.21;102151.38;5122459;28;19904;-91
2022/11/28 07:01:40;;;;;;;;;;;;;;;10.83;71.48;102157.63;5106029;28;19904;-92
2022/11/28 07:04:10;;;;;;;;;;;;;;;10.84;70.89;102151.63;5082379;28;19992;-92
2022/11/28 07:06:42;;;;;;;;;;;;;;;10.86;71.35;102155.25;5065089;28;19917;-95
2022/11/28 07:09:18;;;;;;;;;;;;;;;10.87;70.95;102157.06;5062196;28;19916;-93
2022/11/28 07:11:47;;;;;;;;;;;;;;;10.89;71.25;102144.13;5063244;28;19920;-94
2022/11/28 07:14:13;;;;;;;;;;;;;;;10.86;71.34;102134.34;5083034;28;19936;-91
2022/11/28 07:16:44;;;;;;;;;;;;;;;10.87;71.33;102140.47;5104856;28;20358;-90
2022/11/28 07:19:10;;;;;;;;;;;;;;;10.86;71.02;102144.78;5107108;28;20003;-92
2022/11/28 07:21:40;;;;;;;;;;;;;;;10.90;70.83;102135.47;5091258;28;19972;-88
2022/11/28 07:24:07;;;;;;;;;;;;;;;10.88;71.08;102132.75;5107976;28;19918;-89
2022/11/28 07:26:33;;;;;;;;;;;;;;;10.88;70.79;102130.16;5092501;28;19937;-92
2022/11/28 07:28:58;;;;;;;;;;;;;;;10.91;68.93;102129.44;5105411;28;20032;-88
2022/11/28 07:31:25;;;;;;;;;;;;;;;10.85;68.92;102123.78;5106187;28;19919;-90
2022/11/28 07:33:54;;;;;;;;;;;;;;;10.79;69.89;102116.38;5088822;28;20279;-89
2022/11/28 07:36:25;;;;;;;;;;;;;;;10.72;70.00;102112.41;5100970;28;20409;-88
2022/11/28 07:38:53;;;;;;;;;;;;;;;10.74;69.93;102116.03;5086029;28;19930;-90
2022/11/28 07:41:19;;;;;;;;;;;;;;;10.70;70.00;102094.78;5083091;28;19936;-91
2022/11/28 07:43:46;;;;;;;;;;;;;;;10.75;70.39;102104.81;5085731;28;20027;-89
2022/11/28 07:46:15;;;;;;;;;;;;;;;10.70;70.56;102098.31;5077224;28;19947;-90
2022/11/28 07:48:40;;;;;;;;;;;;;;;10.70;70.47;102105.25;5089047;28;19919;-87
2022/11/28 07:51:11;;;;;;;;;;;;;;;10.66;70.72;102101.47;5087376;28;19938;-91
2022/11/28 07:53:37;;;;;;;;;;;;;;;10.70;70.70;102102.63;5087476;28;20381;-88
2022/11/28 07:56:04;;;;;;;;;;;;;;;10.71;70.84;102104.44;5084661;28;19924;-87
2022/11/28 07:58:29;;;;;;;;;;;;;;;10.70;70.21;102108.75;5092892;28;19912;-88
2022/11/28 08:00:55;;;;;;;;;;;;;;;10.72;70.10;102115.00;5066259;28;19996;-88
2022/11/28 08:03:20;;;;;;;;;;;;;;;10.74;70.04;102117.75;5078523;28;20015;-89
2022/11/28 08:05:48;;;;;;;;;;;;;;;10.72;70.37;102122.84;5084150;28;19966;-90
2022/11/28 08:08:20;;;;;;;;;;;;;;;10.70;70.38;102111.38;5092501;28;19966;-87
2022/11/28 08:10:46;;;;;;;;;;;;;;;10.71;70.12;102120.09;5090516;28;19952;-89
2022/11/28 08:13:12;;;;;;;;;;;;;;;10.69;70.02;102120.00;5100420;28;20305;-87
2022/11/28 08:15:41;;;;;;;;;;;;;;;10.72;70.18;102111.50;5076526;28;20443;-89
2022/11/28 08:18:07;;;;;;;;;;;;;;;10.67;69.75;102123.28;5080666;28;19918;-90
2022/11/28 08:20:40;;;;;;;;;;;;;;;10.68;70.09;102115.56;5090899;28;19915;-91
2022/11/28 08:23:06;;;;;;;;;;;;;;;10.72;70.13;102125.47;5090842;28;19915;-90
2022/11/28 08:25:32;;;;;;;;;;;;;;;10.70;70.03;102111.38;5092001;28;19912;-89
2022/11/28 08:27:57;;;;;;;;;;;;;;;10.71;69.92;102127.94;5105589;28;20011;-89
2022/11/28 08:30:24;;;;;;;;;;;;;;;10.73;70.03;102115.91;5092010;28;19951;-88
2022/11/28 08:32:49;;;;;;;;;;;;;;;10.65;69.36;102127.50;5105577;27;20007;-88
2022/11/28 08:35:14;;;;;;;;;;;;;;;10.61;69.48;102120.25;5094943;27;20011;-86
2022/11/28 08:37:40;;;;;;;;;;;;;;;10.63;69.41;102108.19;5124619;27;19911;-87
2022/11/28 08:40:05;;;;;;;;;;;;;;;10.61;68.71;102091.50;5093483;27;19963;-84
2022/11/28 08:42:31;;;;;;;;;;;;;;;10.52;68.41;102091.69;5132775;27;20590;-86
2022/11/28 08:44:56;;;;;;;;;;;;;;;10.55;68.85;102092.84;5081304;28;19920;-86
2022/11/28 08:47:22;;;;;;;;;;;;;;;10.53;69.19;102093.53;5105920;27;19917;-87
2022/11/28 08:49:47;;;;;;;;;;;;;;;10.44;68.62;102054.56;5067312;28;20298;-86
2022/11/28 08:52:12;;;;;;;;;;;;;;;10.54;69.59;102063.97;5078552;28;19915;-87
2022/11/28 08:54:38;;;;;;;;;;;;;;;10.47;69.27;102064.34;5114859;27;20365;-86
2022/11/28 08:57:04;;;;;;;;;;;;;;;10.53;69.75;102057.84;5092550;27;19937;-87
2022/11/28 08:59:29;;;;;;;;;;;;;;;10.62;69.47;102059.34;5097713;28;19968;-86
2022/11/28 09:01:55;;;;;;;;;;;;;;;10.56;69.70;102050.28;5079377;28;19915;-86
2022/11/28 09:04:20;;;;;;;;;;;;;;;10.47;69.50;102054.78;5113253;28;20401;-86
2022/11/28 09:06:46;;;;;;;;;;;;;;;10.49;69.86;102049.69;5077758;28;19916;-86
2022/11/28 09:09:12;;;;;;;;;;;;;;;10.53;70.12;102036.06;5108550;27;20525;-87
2022/11/28 09:11:37;;;;;;;;;;;;;;;10.51;69.66;102055.94;5078062;27;20561;-87
2022/11/28 09:14:04;;;;;;;;;;;;;;;10.53;69.52;102042.19;5083959;28;20039;-88
2022/11/28 09:16:29;;;;;;;;;;;;;;;10.52;70.53;102036.84;5102548;27;19946;-86
2022/11/28 09:18:56;;;;;;;;;;;;;;;10.54;70.42;102027.41;5121651;27;19911;-86
2022/11/28 09:21:22;;;;;;;;;;;;;;;10.57;69.85;102033.78;5117484;27;19916;-86
2022/11/28 09:23:47;;;;;;;;;;;;;;;10.53;70.04;102018.69;5104786;27;20357;-86
2022/11/28 09:26:17;;;;;;;;;;;;;;;10.63;70.39;102028.13;5096593;28;19912;-86
2022/11/28 09:28:43;;;;;;;;;;;;;;;10.58;69.96;102024.25;5087170;27;19911;-87
2022/11/28 09:31:08;;;;;;;;;;;;;;;10.57;70.11;102010.28;5085321;28;19934;-87
2022/11/28 09:33:34;;;;;;;;;;;;;;;10.54;69.85;102019.56;5084558;27;19916;-88
2022/11/28 09:36:03;;;;;;;;;;;;;;;10.57;70.17;102015.50;5097526;28;19919;-88
2022/11/28 09:38:32;;;;;;;;;;;;;;;10.62;70.36;102014.94;5077701;28;19922;-84
2022/11/28 09:40:57;;;;;;;;;;;;;;;10.62;70.07;102001.88;5116642;28;19915;-87
2022/11/28 09:43:30;;;;;;;;;;;;;;;10.64;70.13;102006.41;5119136;28;19912;-88
2022/11/28 09:45:56;;;;;;;;;;;;;;;10.61;69.96;102010.53;5090131;28;20379;-88
2022/11/28 09:48:24;;;;;;;;;;;;;;;10.59;70.38;101998.25;5090535;28;20405;-88
2022/11/28 09:50:54;;;;;;;;;;;;;;;10.59;69.83;102008.69;5081071;28;19950;-88
2022/11/28 09:53:21;;;;;;;;;;;;;;;10.55;70.43;101988.34;5097068;28;19912;-88
2022/11/28 09:55:48;;;;;;;;;;;;;;;10.57;70.36;101993.72;5099725;28;19916;-88
2022/11/28 09:58:33;;;;;;;;;;;;;;;10.63;70.05;101980.19;5095185;28;19912;-88
2022/11/28 10:01:05;;;;;;;;;;;;;;;10.51;70.54;101982.81;5089641;28;19958;-87
2022/11/28 10:03:41;;;;;;;;;;;;;;;10.55;69.78;101979.63;5099948;28;19912;-88
2022/11/28 10:06:35;;;;;;;;;;;;;;;10.55;70.28;101967.47;5078798;28;20294;-88
2022/11/28 10:09:10;;;;;;;;;;;;;;;10.63;70.65;101961.91;5052050;28;19956;-87
2022/11/28 10:11:50;;;;;;;;;;;;;;;10.63;70.35;101956.69;5090477;28;19918;-88
2022/11/28 10:14:35;;;;;;;;;;;;;;;10.61;70.15;101959.19;5076222;28;20385;-85
2022/11/28 10:17:00;;;;;;;;;;;;;;;10.59;69.99;101979.06;5087642;28;19944;-87
2022/11/28 10:19:35;;;;;;;;;;;;;;;10.61;70.38;101969.63;5103735;28;19919;-88
2022/11/28 10:22:01;;;;;;;;;;;;;;;10.57;70.13;101958.03;5106857;28;19969;-86
2022/11/28 10:24:47;;;;;;;;;;;;;;;10.56;70.25;101958.84;5101035;28;19912;-87
2022/11/28 10:27:13;;;;;;;;;;;;;;;10.65;70.18;101958.59;5090409;28;20335;-88
2022/11/28 10:29:46;;;;;;;;;;;;;;;10.55;70.51;101954.41;5095261;28;20382;-87
2022/11/28 10:32:16;;;;;;;;;;;;;;;10.61;70.30;101960.88;5082894;28;19916;-89
2022/11/28 10:34:41;;;;;;;;;;;;;;;10.54;70.50;101950.00;5082157;28;20014;-86
2022/11/28 10:40:13;;;;;;;;;;;;;;;10.65;70.11;101953.38;5114337;27;19945;-92
2022/11/28 10:42:39;;;;;;;;;;;;;;;10.54;70.12;101963.06;5106609;27;19912;-89
2022/11/28 10:45:07;;;;;;;;;;;;;;;10.59;70.43;101964.28;5098333;28;20292;-88
2022/11/28 10:47:51;;;;;;;;;;;;;;;10.63;70.24;101961.91;5106315;27;20396;-88
2022/11/28 10:50:26;;;;;;;;;;;;;;;10.68;70.08;101968.38;5097348;28;19951;-87
2022/11/28 10:53:00;;;;;;;;;;;;;;;10.69;70.21;101958.03;5104758;27;19959;-88
2022/11/28 10:55:28;;;;;;;;;;;;;;;10.58;70.37;101958.94;5094208;28;19918;-85
2022/11/28 10:57:57;;;;;;;;;;;;;;;10.61;70.70;101953.06;5123957;27;20404;-85
2022/11/28 11:00:22;;;;;;;;;;;;;;;10.59;70.33;101956.44;5119967;27;19954;-88
2022/11/28 11:02:48;;;;;;;;;;;;;;;10.50;70.31;101961.00;5100873;27;19943;-89
2022/11/28 11:05:18;;;;;;;;;;;;;;;10.49;69.97;101958.28;5116597;27;19912;-87
2022/11/28 11:08:03;;;;;;;;;;;;;;;10.41;70.07;101944.66;5097450;28;20496;-90
2022/11/28 11:10:49;;;;;;;;;;;;;;;10.40;70.60;101940.22;5097195;28;19912;-87
2022/11/28 11:13:14;;;;;;;;;;;;;;;10.42;70.71;101936.03;5097349;28;19969;-87
2022/11/28 11:15:40;;;;;;;;;;;;;;;10.52;70.55;101925.47;5111917;28;19912;-88
2022/11/28 11:18:19;;;;;;;;;;;;;;;10.51;70.57;101907.97;5101424;27;19937;-86
2022/11/28 11:20:44;;;;;;;;;;;;;;;10.58;70.70;101914.53;5092482;27;20450;-87
2022/11/28 11:23:12;;;;;;;;;;;;;;;10.53;70.75;101913.31;5112095;27;19998;-88
2022/11/28 11:25:44;;;;;;;;;;;;;;;10.49;70.55;101901.72;5112146;27;19923;-87
2022/11/28 11:28:10;;;;;;;;;;;;;;;10.49;70.72;101906.03;5094542;27;19911;-85
2022/11/28 11:30:41;;;;;;;;;;;;;;;10.56;70.64;101901.38;5091799;27;20311;-87
2022/11/28 11:33:11;;;;;;;;;;;;;;;10.53;70.34;101893.31;5107192;27;20448;-86
2022/11/28 11:35:40;;;;;;;;;;;;;;;10.54;70.62;101892.53;5109430;28;19920;-86
2022/11/28 11:38:22;;;;;;;;;;;;;;;10.57;70.55;101886.63;5105130;28;19912;-85
2022/11/28 11:40:48;;;;;;;;;;;;;;;10.61;70.70;101891.25;5109518;28;19920;-85
2022/11/28 11:43:36;;;;;;;;;;;;;;;10.52;70.52;101888.91;5101152;28;19954;-89
2022/11/28 11:46:06;;;;;;;;;;;;;;;10.57;70.39;101900.56;5107391;28;19969;-90
2022/11/28 11:48:51;;;;;;;;;;;;;;;10.59;70.61;101870.25;5087360;28;20440;-90
2022/11/28 11:51:20;;;;;;;;;;;;;;;10.62;70.56;101887.84;5106849;28;19912;-89
2022/11/28 11:53:59;;;;;;;;;;;;;;;10.62;70.37;101894.78;5108373;28;20380;-90
2022/11/28 11:56:24;;;;;;;;;;;;;;;10.61;70.35;101898.19;5087431;28;19961;-90
2022/11/28 11:58:50;;;;;;;;;;;;;;;10.57;70.42;101889.22;5089185;28;19912;-89
2022/11/28 12:01:16;;;;;;;;;;;;;;;10.55;70.42;101888.22;5109725;27;19916;-90
2022/11/28 12:03:52;;;;;;;;;;;;;;;10.61;70.39;101895.59;5105874;28;19965;-89
2022/11/28 12:06:22;;;;;;;;;;;;;;;10.64;70.72;101887.94;5103282;28;20286;-89
2022/11/28 12:08:58;;;;;;;;;;;;;;;10.60;70.46;101894.66;5072673;28;19916;-86
2022/11/28 12:11:25;;;;;;;;;;;;;;;10.59;70.78;101891.16;5078398;28;19912;-87
2022/11/28 12:13:50;;;;;;;;;;;;;;;10.61;70.40;101891.25;5092350;28;19919;-87
2022/11/28 12:16:19;;;;;;;;;;;;;;;10.61;70.38;101885.13;5087988;28;20007;-86
2022/11/28 12:19:03;;;;;;;;;;;;;;;10.64;70.72;101903.63;5097771;28;19912;-87
2022/11/28 12:21:41;;;;;;;;;;;;;;;10.64;70.36;101888.84;5097026;28;20309;-88
2022/11/28 12:24:11;;;;;;;;;;;;;;;10.65;70.57;101882.84;5097417;28;20411;-89
2022/11/28 12:26:56;;;;;;;;;;;;;;;10.59;70.31;101890.25;5079162;28;20007;-89
2022/11/28 12:29:21;;;;;;;;;;;;;;;10.62;70.54;101894.78;5095128;28;19919;-88
2022/11/28 12:31:55;;;;;;;;;;;;;;;10.65;70.21;101885.47;5085915;28;19916;-89
2022/11/28 12:34:30;;;;;;;;;;;;;;;10.59;70.64;101888.53;5083109;28;19920;-87
2022/11/28 12:36:58;;;;;;;;;;;;;;;10.59;70.26;101879.78;5078887;28;19971;-88
2022/11/28 12:39:27;;;;;;;;;;;;;;;10.55;70.75;101890.81;5086737;28;19916;-88
2022/11/28 12:41:55;;;;;;;;;;;;;;;10.60;70.29;101899.88;5091428;28;19917;-86
2022/11/28 12:44:28;;;;;;;;;;;;;;;10.60;70.28;101894.66;5098184;28;20282;-87
2022/11/28 12:46:59;;;;;;;;;;;;;;;10.61;70.59;101888.66;5095501;28;19919;-88
2022/11/28 12:49:35;;;;;;;;;;;;;;;10.59;70.76;101893.75;5100272;28;19941;-88
2022/11/28 12:52:19;;;;;;;;;;;;;;;10.63;70.37;101891.38;5096880;28;20471;-88
2022/11/28 12:54:47;;;;;;;;;;;;;;;10.63;70.45;101886.16;5089771;28;19921;-88
2022/11/28 12:57:32;;;;;;;;;;;;;;;10.63;70.47;101871.38;5089094;28;19912;-88
2022/11/28 13:00:00;;;;;;;;;;;;;;;10.61;70.42;101872.06;5089365;28;19938;-89
2022/11/28 13:02:35;;;;;;;;;;;;;;;10.59;70.27;101859.81;5085887;28;20011;-89